OMD198 KFLL-KMZJ
Flight info
| Callsign | OMD198 |
|---|---|
| Flight time | 4h 54m |
| Altitude | 34000 |
| Route | HROCK2 SMELZ Q116 JAWJA CEW PENSI MEI YUYUN CIKAN ELP J2 TUS |
| Aircraft | A320/M-SDE3FGHIRWY/LB1 |
Departure
| Time | 2026-05-07 23:54 |
|---|---|
| Airport | Fort Lauderdale Hollywood International Airport (KFLL) |
Arrival
| Time | 2026-05-08 04:49 |
|---|---|
| Airport | Pinal Airpark (KMZJ) |
| Time | Latitude | Longitude | Altitude | Speed | Heading |
|---|---|---|---|---|---|
| 2026-05-07 23:22 | 26.07877 | -80.14995 | 16 ft | 0 kts | 91° |
| 2026-05-07 23:50 | 26.07877 | -80.14985 | 16 ft | 2 kts | 91° |
| 2026-05-07 23:50 | 26.07877 | -80.14976 | 16 ft | 2 kts | 92° |
| 2026-05-07 23:50 | 26.07872 | -80.14958 | 16 ft | 4 kts | 116° |
| 2026-05-07 23:51 | 26.07822 | -80.14952 | 16 ft | 14 kts | 213° |
| 2026-05-07 23:51 | 26.07811 | -80.15084 | 16 ft | 21 kts | 271° |
| 2026-05-07 23:51 | 26.07811 | -80.15261 | 16 ft | 25 kts | 270° |
| 2026-05-07 23:51 | 26.07812 | -80.15452 | 16 ft | 21 kts | 270° |
| 2026-05-07 23:52 | 26.07812 | -80.15599 | 16 ft | 20 kts | 269° |
| 2026-05-07 23:52 | 26.07813 | -80.15766 | 16 ft | 24 kts | 273° |
| 2026-05-07 23:52 | 26.07816 | -80.15967 | 17 ft | 27 kts | 269° |
| 2026-05-07 23:52 | 26.07816 | -80.16187 | 17 ft | 30 kts | 270° |
| 2026-05-07 23:53 | 26.07806 | -80.16397 | 17 ft | 26 kts | 266° |
| 2026-05-07 23:53 | 26.07803 | -80.16594 | 17 ft | 20 kts | 263° |
| 2026-05-07 23:53 | 26.07735 | -80.16642 | 18 ft | 17 kts | 178° |
| 2026-05-07 23:53 | 26.07691 | -80.16591 | 18 ft | 13 kts | 83° |
| 2026-05-07 23:54 | 26.07694 | -80.16390 | 21 ft | 54 kts | 91° |
| 2026-05-07 23:54 | 26.07687 | -80.15603 | 16 ft | 145 kts | 91° |
| 2026-05-07 23:54 | 26.07694 | -80.14294 | 470 ft | 180 kts | 92° |
| 2026-05-07 23:54 | 26.07728 | -80.12886 | 1540 ft | 183 kts | 90° |
| 2026-05-07 23:55 | 26.07770 | -80.11417 | 2255 ft | 199 kts | 89° |
| 2026-05-07 23:55 | 26.07888 | -80.09806 | 2620 ft | 225 kts | 75° |
| 2026-05-07 23:55 | 26.08566 | -80.08116 | 3073 ft | 250 kts | 53° |
| 2026-05-07 23:55 | 26.09923 | -80.06824 | 3603 ft | 267 kts | 22° |
| 2026-05-07 23:56 | 26.11679 | -80.06081 | 4549 ft | 271 kts | 17° |
| 2026-05-07 23:56 | 26.13461 | -80.05378 | 5562 ft | 273 kts | 14° |
| 2026-05-07 23:56 | 26.15342 | -80.05046 | 6512 ft | 276 kts | 359° |
| 2026-05-07 23:56 | 26.17212 | -80.05350 | 7363 ft | 279 kts | 337° |
| 2026-05-07 23:57 | 26.18836 | -80.06573 | 8194 ft | 284 kts | 311° |
| 2026-05-07 23:57 | 26.19805 | -80.08466 | 8992 ft | 290 kts | 287° |
| 2026-05-07 23:57 | 26.20320 | -80.10653 | 9821 ft | 295 kts | 284° |
| 2026-05-07 23:57 | 26.21048 | -80.12866 | 10311 ft | 311 kts | 293° |
| 2026-05-07 23:58 | 26.21968 | -80.15146 | 10537 ft | 334 kts | 295° |
| 2026-05-07 23:58 | 26.22989 | -80.17567 | 10758 ft | 355 kts | 295° |
| 2026-05-07 23:58 | 26.24059 | -80.20077 | 11321 ft | 361 kts | 295° |
| 2026-05-07 23:58 | 26.25140 | -80.22618 | 12003 ft | 365 kts | 295° |
| 2026-05-07 23:59 | 26.26219 | -80.25174 | 12722 ft | 367 kts | 294° |
| 2026-05-07 23:59 | 26.27304 | -80.27760 | 13439 ft | 369 kts | 294° |
| 2026-05-07 23:59 | 26.28387 | -80.30358 | 14137 ft | 370 kts | 294° |
| 2026-05-07 23:59 | 26.29471 | -80.32966 | 14798 ft | 372 kts | 294° |
| 2026-05-08 00:00 | 26.30560 | -80.35593 | 15431 ft | 374 kts | 294° |
| 2026-05-08 00:00 | 26.31651 | -80.38231 | 15845 ft | 376 kts | 294° |
| 2026-05-08 00:00 | 26.32745 | -80.40872 | 15975 ft | 375 kts | 294° |
| 2026-05-08 00:00 | 26.33839 | -80.43508 | 16001 ft | 374 kts | 294° |
| 2026-05-08 00:01 | 26.34931 | -80.46144 | 16002 ft | 374 kts | 294° |
| 2026-05-08 00:01 | 26.36018 | -80.48775 | 15995 ft | 374 kts | 294° |
| 2026-05-08 00:01 | 26.37105 | -80.51410 | 15995 ft | 374 kts | 294° |
| 2026-05-08 00:01 | 26.38190 | -80.54041 | 15996 ft | 374 kts | 294° |
| 2026-05-08 00:02 | 26.39280 | -80.56682 | 15995 ft | 374 kts | 294° |
| 2026-05-08 00:02 | 26.40365 | -80.59313 | 15995 ft | 374 kts | 294° |
| 2026-05-08 00:02 | 26.41454 | -80.61951 | 16089 ft | 377 kts | 294° |
| 2026-05-08 00:02 | 26.42553 | -80.64620 | 16770 ft | 379 kts | 294° |
| 2026-05-08 00:03 | 26.43651 | -80.67293 | 17454 ft | 380 kts | 294° |
| 2026-05-08 00:03 | 26.44758 | -80.69986 | 18138 ft | 383 kts | 294° |
| 2026-05-08 00:03 | 26.45875 | -80.72699 | 18760 ft | 385 kts | 294° |
| 2026-05-08 00:03 | 26.46995 | -80.75411 | 19366 ft | 387 kts | 294° |
| 2026-05-08 00:04 | 26.48123 | -80.78146 | 19983 ft | 389 kts | 294° |
| 2026-05-08 00:04 | 26.49251 | -80.80893 | 20588 ft | 390 kts | 294° |
| 2026-05-08 00:04 | 26.50434 | -80.83633 | 21168 ft | 393 kts | 298° |
| 2026-05-08 00:04 | 26.51982 | -80.86123 | 21724 ft | 397 kts | 308° |
| 2026-05-08 00:05 | 26.53853 | -80.88400 | 22256 ft | 399 kts | 310° |
| 2026-05-08 00:05 | 26.55749 | -80.90681 | 22792 ft | 402 kts | 310° |
| 2026-05-08 00:05 | 26.57652 | -80.92978 | 23312 ft | 404 kts | 310° |
| 2026-05-08 00:05 | 26.59558 | -80.95286 | 23772 ft | 405 kts | 309° |
| 2026-05-08 00:06 | 26.61471 | -80.97611 | 24181 ft | 407 kts | 309° |
| 2026-05-08 00:06 | 26.63391 | -80.99948 | 24578 ft | 409 kts | 309° |
| 2026-05-08 00:06 | 26.65319 | -81.02299 | 24960 ft | 411 kts | 309° |
| 2026-05-08 00:06 | 26.67258 | -81.04660 | 25337 ft | 413 kts | 309° |
| 2026-05-08 00:07 | 26.69208 | -81.07036 | 25716 ft | 415 kts | 309° |
| 2026-05-08 00:07 | 26.71165 | -81.09418 | 26078 ft | 418 kts | 309° |
| 2026-05-08 00:07 | 26.73140 | -81.11819 | 26443 ft | 420 kts | 309° |
| 2026-05-08 00:07 | 26.75118 | -81.14227 | 26797 ft | 422 kts | 309° |
| 2026-05-08 00:08 | 26.77113 | -81.16656 | 27158 ft | 424 kts | 310° |
| 2026-05-08 00:08 | 26.79115 | -81.19095 | 27516 ft | 427 kts | 309° |
| 2026-05-08 00:08 | 26.81124 | -81.21546 | 27883 ft | 429 kts | 309° |
| 2026-05-08 00:08 | 26.83144 | -81.24015 | 28237 ft | 431 kts | 309° |
| 2026-05-08 00:09 | 26.84515 | -81.25692 | 28466 ft | 433 kts | 309° |
| 2026-05-08 00:09 | 26.86554 | -81.28182 | 28814 ft | 435 kts | 310° |
| 2026-05-08 00:09 | 26.88604 | -81.30689 | 29157 ft | 437 kts | 309° |
| 2026-05-08 00:09 | 26.90637 | -81.33174 | 29483 ft | 439 kts | 309° |
| 2026-05-08 00:10 | 26.92730 | -81.35733 | 29834 ft | 440 kts | 309° |
| 2026-05-08 00:10 | 26.94797 | -81.38264 | 30270 ft | 439 kts | 309° |
| 2026-05-08 00:10 | 26.96856 | -81.40782 | 30660 ft | 437 kts | 309° |
| 2026-05-08 00:10 | 26.98903 | -81.43292 | 31054 ft | 436 kts | 309° |
| 2026-05-08 00:11 | 27.00947 | -81.45799 | 31442 ft | 435 kts | 309° |
| 2026-05-08 00:11 | 27.02963 | -81.48271 | 31847 ft | 434 kts | 309° |
| 2026-05-08 00:11 | 27.05104 | -81.50664 | 32259 ft | 437 kts | 316° |
| 2026-05-08 00:11 | 27.07573 | -81.52665 | 32671 ft | 440 kts | 323° |
| 2026-05-08 00:12 | 27.10144 | -81.54516 | 33095 ft | 439 kts | 323° |
| 2026-05-08 00:12 | 27.12715 | -81.56364 | 33527 ft | 438 kts | 323° |
| 2026-05-08 00:12 | 27.15277 | -81.58211 | 33968 ft | 437 kts | 323° |
| 2026-05-08 00:12 | 27.17834 | -81.60056 | 34365 ft | 436 kts | 323° |
| 2026-05-08 00:13 | 27.20386 | -81.61900 | 34749 ft | 435 kts | 323° |
| 2026-05-08 00:13 | 27.22925 | -81.63737 | 35142 ft | 435 kts | 323° |
| 2026-05-08 00:13 | 27.25469 | -81.65577 | 35530 ft | 434 kts | 322° |
| 2026-05-08 00:13 | 27.28006 | -81.67410 | 35915 ft | 433 kts | 322° |
| 2026-05-08 00:14 | 27.30538 | -81.69239 | 36276 ft | 432 kts | 322° |
| 2026-05-08 00:14 | 27.33060 | -81.71063 | 36631 ft | 431 kts | 322° |
| 2026-05-08 00:14 | 27.35582 | -81.72889 | 36940 ft | 432 kts | 322° |
| 2026-05-08 00:14 | 27.38104 | -81.74722 | 37016 ft | 431 kts | 322° |
| 2026-05-08 00:15 | 27.43147 | -81.78384 | 37017 ft | 431 kts | 322° |
| 2026-05-08 00:15 | 27.48415 | -81.81636 | 37023 ft | 436 kts | 331° |
| 2026-05-08 00:16 | 27.53986 | -81.84348 | 37022 ft | 437 kts | 331° |
| 2026-05-08 00:16 | 27.59571 | -81.87068 | 37021 ft | 437 kts | 331° |
| 2026-05-08 00:17 | 27.65154 | -81.89785 | 37046 ft | 437 kts | 331° |
| 2026-05-08 00:17 | 27.70734 | -81.92500 | 37025 ft | 437 kts | 331° |
| 2026-05-08 00:18 | 27.76314 | -81.95227 | 37044 ft | 437 kts | 331° |
| 2026-05-08 00:18 | 27.81850 | -81.97938 | 37039 ft | 436 kts | 331° |
| 2026-05-08 00:19 | 27.87415 | -82.00673 | 37033 ft | 435 kts | 330° |
| 2026-05-08 00:19 | 27.92961 | -82.03404 | 37036 ft | 434 kts | 330° |
| 2026-05-08 00:20 | 27.98517 | -82.06131 | 37036 ft | 435 kts | 331° |
| 2026-05-08 00:20 | 28.04062 | -82.08848 | 37045 ft | 435 kts | 331° |
| 2026-05-08 00:21 | 28.09457 | -82.11843 | 37044 ft | 427 kts | 321° |
| 2026-05-08 00:21 | 28.14312 | -82.15704 | 37054 ft | 426 kts | 320° |
| 2026-05-08 00:22 | 28.19135 | -82.19578 | 37054 ft | 424 kts | 319° |
| 2026-05-08 00:22 | 28.23957 | -82.23435 | 37054 ft | 424 kts | 319° |
| 2026-05-08 00:23 | 28.28779 | -82.27284 | 37051 ft | 424 kts | 320° |
| 2026-05-08 00:23 | 28.33603 | -82.31132 | 37046 ft | 424 kts | 319° |
| 2026-05-08 00:24 | 28.38421 | -82.34993 | 37050 ft | 424 kts | 319° |
| 2026-05-08 00:24 | 28.43239 | -82.38861 | 37054 ft | 424 kts | 319° |
| 2026-05-08 00:25 | 28.48047 | -82.42717 | 37051 ft | 422 kts | 319° |
| 2026-05-08 00:25 | 28.52828 | -82.46569 | 37054 ft | 420 kts | 319° |
| 2026-05-08 00:26 | 28.57601 | -82.50406 | 37027 ft | 420 kts | 319° |
| 2026-05-08 00:26 | 28.62373 | -82.54256 | 37027 ft | 420 kts | 319° |
| 2026-05-08 00:27 | 28.67142 | -82.58106 | 37027 ft | 420 kts | 319° |
| 2026-05-08 00:27 | 28.71912 | -82.61955 | 37024 ft | 420 kts | 319° |
| 2026-05-08 00:28 | 28.76687 | -82.65810 | 37041 ft | 420 kts | 318° |
| 2026-05-08 00:28 | 28.81398 | -82.69633 | 37024 ft | 417 kts | 318° |
| 2026-05-08 00:29 | 28.86159 | -82.73502 | 37040 ft | 417 kts | 318° |
| 2026-05-08 00:29 | 28.90850 | -82.77296 | 37040 ft | 417 kts | 318° |
| 2026-05-08 00:30 | 28.95583 | -82.81124 | 37033 ft | 416 kts | 318° |
| 2026-05-08 00:30 | 29.00294 | -82.84972 | 37028 ft | 416 kts | 318° |
| 2026-05-08 00:31 | 29.05008 | -82.88822 | 37026 ft | 416 kts | 318° |
| 2026-05-08 00:31 | 29.09714 | -82.92657 | 37023 ft | 415 kts | 317° |
| 2026-05-08 00:32 | 29.14413 | -82.96483 | 37023 ft | 414 kts | 317° |
| 2026-05-08 00:32 | 29.19110 | -83.00310 | 37019 ft | 415 kts | 317° |
| 2026-05-08 00:33 | 29.23800 | -83.04150 | 37022 ft | 414 kts | 317° |
| 2026-05-08 00:33 | 29.28487 | -83.07999 | 37020 ft | 414 kts | 317° |
| 2026-05-08 00:34 | 29.33182 | -83.11841 | 37019 ft | 415 kts | 317° |
| 2026-05-08 00:34 | 29.37871 | -83.15692 | 37028 ft | 414 kts | 317° |
| 2026-05-08 00:35 | 29.42547 | -83.19543 | 37020 ft | 414 kts | 317° |
| 2026-05-08 00:35 | 29.47220 | -83.23400 | 37019 ft | 414 kts | 317° |
| 2026-05-08 00:36 | 29.51900 | -83.27253 | 37019 ft | 414 kts | 317° |
| 2026-05-08 00:36 | 29.56580 | -83.31112 | 37011 ft | 414 kts | 317° |
| 2026-05-08 00:37 | 29.61262 | -83.34977 | 37012 ft | 414 kts | 317° |
| 2026-05-08 00:38 | 29.68273 | -83.40770 | 37013 ft | 413 kts | 316° |
| 2026-05-08 00:38 | 29.72904 | -83.44604 | 37009 ft | 413 kts | 316° |
| 2026-05-08 00:39 | 29.77561 | -83.48466 | 37015 ft | 413 kts | 316° |
| 2026-05-08 00:39 | 29.82223 | -83.52336 | 37014 ft | 413 kts | 316° |
| 2026-05-08 00:40 | 29.86889 | -83.56212 | 37014 ft | 414 kts | 316° |
| 2026-05-08 00:40 | 29.91570 | -83.60101 | 37015 ft | 415 kts | 316° |
| 2026-05-08 00:41 | 29.96262 | -83.63997 | 37046 ft | 415 kts | 316° |
| 2026-05-08 00:41 | 30.00938 | -83.67893 | 37017 ft | 414 kts | 315° |
| 2026-05-08 00:42 | 30.05609 | -83.71796 | 37016 ft | 414 kts | 315° |
| 2026-05-08 00:42 | 30.10277 | -83.75706 | 37014 ft | 414 kts | 315° |
| 2026-05-08 00:43 | 30.14808 | -83.79700 | 37007 ft | 406 kts | 308° |
| 2026-05-08 00:43 | 30.17983 | -83.84873 | 37003 ft | 389 kts | 289° |
| 2026-05-08 00:44 | 30.19573 | -83.90777 | 37000 ft | 385 kts | 282° |
| 2026-05-08 00:44 | 30.20991 | -83.96739 | 36991 ft | 385 kts | 282° |
| 2026-05-08 00:45 | 30.22418 | -84.02709 | 36991 ft | 385 kts | 282° |
| 2026-05-08 00:45 | 30.23848 | -84.08689 | 36989 ft | 385 kts | 282° |
| 2026-05-08 00:46 | 30.25271 | -84.14661 | 36989 ft | 385 kts | 282° |
| 2026-05-08 00:46 | 30.26692 | -84.20638 | 36989 ft | 385 kts | 282° |
| 2026-05-08 00:47 | 30.28104 | -84.26615 | 36992 ft | 384 kts | 281° |
| 2026-05-08 00:47 | 30.29513 | -84.32564 | 36987 ft | 382 kts | 281° |
| 2026-05-08 00:48 | 30.30907 | -84.38495 | 36972 ft | 382 kts | 281° |
| 2026-05-08 00:48 | 30.32304 | -84.44435 | 36973 ft | 382 kts | 281° |
| 2026-05-08 00:49 | 30.33698 | -84.50379 | 36973 ft | 382 kts | 281° |
| 2026-05-08 00:49 | 30.35078 | -84.56275 | 36970 ft | 382 kts | 281° |
| 2026-05-08 00:50 | 30.36468 | -84.62211 | 36970 ft | 382 kts | 281° |
| 2026-05-08 00:50 | 30.37856 | -84.68157 | 36968 ft | 382 kts | 281° |
| 2026-05-08 00:51 | 30.39234 | -84.74094 | 36970 ft | 382 kts | 281° |
| 2026-05-08 00:51 | 30.40609 | -84.80026 | 36970 ft | 381 kts | 281° |
| 2026-05-08 00:52 | 30.41989 | -84.85962 | 36970 ft | 381 kts | 281° |
| 2026-05-08 00:52 | 30.43128 | -84.90893 | 36970 ft | 381 kts | 281° |
| 2026-05-08 00:53 | 30.44492 | -84.96836 | 36969 ft | 381 kts | 281° |
| 2026-05-08 00:53 | 30.45855 | -85.02770 | 36970 ft | 381 kts | 281° |
| 2026-05-08 00:54 | 30.47224 | -85.08711 | 36970 ft | 381 kts | 281° |
| 2026-05-08 00:54 | 30.48575 | -85.14639 | 36969 ft | 380 kts | 281° |
| 2026-05-08 00:55 | 30.49932 | -85.20571 | 36969 ft | 380 kts | 281° |
| 2026-05-08 00:55 | 30.51291 | -85.26500 | 36971 ft | 380 kts | 281° |
| 2026-05-08 00:56 | 30.52639 | -85.32438 | 36975 ft | 380 kts | 281° |
| 2026-05-08 00:56 | 30.53977 | -85.38369 | 36975 ft | 380 kts | 281° |
| 2026-05-08 00:57 | 30.55326 | -85.44302 | 36939 ft | 380 kts | 281° |
| 2026-05-08 00:57 | 30.56667 | -85.50233 | 36944 ft | 380 kts | 281° |
| 2026-05-08 00:58 | 30.58004 | -85.56153 | 36950 ft | 379 kts | 281° |
| 2026-05-08 00:58 | 30.59341 | -85.62076 | 36950 ft | 379 kts | 281° |
| 2026-05-08 00:59 | 30.60670 | -85.67998 | 36951 ft | 379 kts | 280° |
| 2026-05-08 00:59 | 30.61992 | -85.73930 | 36954 ft | 379 kts | 280° |
| 2026-05-08 01:00 | 30.63305 | -85.79821 | 36949 ft | 379 kts | 280° |
| 2026-05-08 01:00 | 30.64620 | -85.85745 | 36944 ft | 379 kts | 280° |
| 2026-05-08 01:01 | 30.65948 | -85.91707 | 36950 ft | 379 kts | 280° |
| 2026-05-08 01:01 | 30.67261 | -85.97638 | 36941 ft | 379 kts | 280° |
| 2026-05-08 01:02 | 30.68567 | -86.03529 | 36942 ft | 379 kts | 280° |
| 2026-05-08 01:02 | 30.69877 | -86.09458 | 36942 ft | 379 kts | 280° |
| 2026-05-08 01:03 | 30.71184 | -86.15390 | 36938 ft | 379 kts | 280° |
| 2026-05-08 01:03 | 30.72487 | -86.21321 | 36964 ft | 378 kts | 280° |
| 2026-05-08 01:04 | 30.73783 | -86.27242 | 36997 ft | 378 kts | 280° |
| 2026-05-08 01:04 | 30.75078 | -86.33155 | 37008 ft | 378 kts | 280° |
| 2026-05-08 01:05 | 30.76371 | -86.39078 | 37021 ft | 378 kts | 280° |
| 2026-05-08 01:05 | 30.77662 | -86.44991 | 37026 ft | 378 kts | 280° |
| 2026-05-08 01:06 | 30.78946 | -86.50908 | 37027 ft | 377 kts | 280° |
| 2026-05-08 01:06 | 30.80229 | -86.56831 | 37030 ft | 377 kts | 280° |
| 2026-05-08 01:07 | 30.81507 | -86.62745 | 37025 ft | 377 kts | 280° |
| 2026-05-08 01:07 | 30.82510 | -86.68696 | 37019 ft | 372 kts | 270° |
| 2026-05-08 01:08 | 30.82248 | -86.74695 | 37010 ft | 372 kts | 265° |
| 2026-05-08 01:08 | 30.81926 | -86.80702 | 36999 ft | 372 kts | 265° |
| 2026-05-08 01:09 | 30.81610 | -86.86712 | 37006 ft | 372 kts | 265° |
| 2026-05-08 01:09 | 30.81285 | -86.92717 | 37013 ft | 372 kts | 265° |
| 2026-05-08 01:10 | 30.80953 | -86.98679 | 37016 ft | 372 kts | 265° |
| 2026-05-08 01:10 | 30.80616 | -87.04676 | 37017 ft | 371 kts | 265° |
| 2026-05-08 01:11 | 30.80280 | -87.10665 | 37014 ft | 371 kts | 265° |
| 2026-05-08 01:11 | 30.79942 | -87.16658 | 37008 ft | 371 kts | 265° |
| 2026-05-08 01:12 | 30.79704 | -87.22658 | 36972 ft | 372 kts | 272° |
| 2026-05-08 01:12 | 30.80204 | -87.25624 | 36985 ft | 378 kts | 284° |
| 2026-05-08 01:12 | 30.81330 | -87.28409 | 36985 ft | 387 kts | 296° |
| 2026-05-08 01:12 | 30.83070 | -87.30868 | 36985 ft | 401 kts | 308° |
| 2026-05-08 01:13 | 30.85228 | -87.32974 | 36990 ft | 406 kts | 311° |
| 2026-05-08 01:13 | 30.89625 | -87.37121 | 36985 ft | 407 kts | 311° |
| 2026-05-08 01:14 | 30.94023 | -87.41269 | 37029 ft | 406 kts | 311° |
| 2026-05-08 01:14 | 30.98390 | -87.45404 | 37008 ft | 404 kts | 311° |
| 2026-05-08 01:15 | 31.02736 | -87.49537 | 37007 ft | 403 kts | 310° |
| 2026-05-08 01:15 | 31.07075 | -87.53672 | 37016 ft | 403 kts | 311° |
| 2026-05-08 01:16 | 31.11426 | -87.57804 | 37018 ft | 403 kts | 311° |
| 2026-05-08 01:16 | 31.15770 | -87.61934 | 37018 ft | 403 kts | 311° |
| 2026-05-08 01:17 | 31.20119 | -87.66079 | 37021 ft | 403 kts | 311° |
| 2026-05-08 01:17 | 31.24448 | -87.70220 | 37021 ft | 402 kts | 310° |
| 2026-05-08 01:18 | 31.28759 | -87.74348 | 37028 ft | 400 kts | 310° |
| 2026-05-08 01:18 | 31.33069 | -87.78482 | 37026 ft | 400 kts | 310° |
| 2026-05-08 01:19 | 31.37341 | -87.82580 | 37027 ft | 400 kts | 310° |
| 2026-05-08 01:19 | 31.41642 | -87.86703 | 37030 ft | 400 kts | 310° |
| 2026-05-08 01:20 | 31.45945 | -87.90833 | 37029 ft | 400 kts | 310° |
| 2026-05-08 01:20 | 31.50239 | -87.94969 | 37030 ft | 400 kts | 310° |
| 2026-05-08 01:21 | 31.54522 | -87.99098 | 37037 ft | 397 kts | 310° |
| 2026-05-08 01:21 | 31.58781 | -88.03208 | 37038 ft | 396 kts | 310° |
| 2026-05-08 01:22 | 31.63035 | -88.07326 | 37038 ft | 396 kts | 310° |
| 2026-05-08 01:22 | 31.67288 | -88.11438 | 37038 ft | 396 kts | 310° |
| 2026-05-08 01:23 | 31.71543 | -88.15558 | 37040 ft | 397 kts | 310° |
| 2026-05-08 01:23 | 31.75803 | -88.19679 | 37046 ft | 396 kts | 310° |
| 2026-05-08 01:24 | 31.80050 | -88.23807 | 37065 ft | 395 kts | 309° |
| 2026-05-08 01:24 | 31.84276 | -88.27911 | 37051 ft | 393 kts | 309° |
| 2026-05-08 01:25 | 31.88492 | -88.32014 | 37052 ft | 393 kts | 309° |
| 2026-05-08 01:25 | 31.92700 | -88.36115 | 37053 ft | 393 kts | 309° |
| 2026-05-08 01:26 | 31.96912 | -88.40220 | 37051 ft | 393 kts | 309° |
| 2026-05-08 01:26 | 32.01113 | -88.44325 | 37359 ft | 392 kts | 309° |
| 2026-05-08 01:26 | 32.03211 | -88.46375 | 37621 ft | 391 kts | 309° |
| 2026-05-08 01:27 | 32.05304 | -88.48424 | 37882 ft | 390 kts | 309° |
| 2026-05-08 01:27 | 32.07392 | -88.50467 | 38068 ft | 390 kts | 309° |
| 2026-05-08 01:27 | 32.09469 | -88.52497 | 38052 ft | 387 kts | 309° |
| 2026-05-08 01:28 | 32.13601 | -88.56544 | 38056 ft | 385 kts | 309° |
| 2026-05-08 01:28 | 32.17699 | -88.60568 | 38060 ft | 385 kts | 309° |
| 2026-05-08 01:29 | 32.21812 | -88.64607 | 38062 ft | 385 kts | 309° |
| 2026-05-08 01:29 | 32.25935 | -88.68662 | 38064 ft | 385 kts | 309° |
| 2026-05-08 01:30 | 32.30048 | -88.72715 | 38062 ft | 385 kts | 309° |
| 2026-05-08 01:30 | 32.34153 | -88.76791 | 38095 ft | 382 kts | 306° |
| 2026-05-08 01:30 | 32.35869 | -88.79082 | 38078 ft | 366 kts | 295° |
| 2026-05-08 01:31 | 32.37097 | -88.81657 | 38075 ft | 354 kts | 286° |
| 2026-05-08 01:31 | 32.38074 | -88.87229 | 38067 ft | 345 kts | 270° |
| 2026-05-08 01:32 | 32.38259 | -88.92900 | 38061 ft | 345 kts | 270° |
| 2026-05-08 01:32 | 32.38454 | -88.98573 | 38059 ft | 345 kts | 270° |
| 2026-05-08 01:33 | 32.38641 | -89.04244 | 38060 ft | 345 kts | 270° |
| 2026-05-08 01:33 | 32.38824 | -89.09921 | 38062 ft | 346 kts | 270° |
| 2026-05-08 01:34 | 32.38996 | -89.15605 | 38065 ft | 346 kts | 270° |
| 2026-05-08 01:34 | 32.39167 | -89.21292 | 38066 ft | 346 kts | 270° |
| 2026-05-08 01:35 | 32.39337 | -89.26974 | 38068 ft | 346 kts | 270° |
| 2026-05-08 01:35 | 32.39511 | -89.32654 | 38068 ft | 345 kts | 270° |
| 2026-05-08 01:36 | 32.39653 | -89.37378 | 38069 ft | 345 kts | 270° |
| 2026-05-08 01:36 | 32.39847 | -89.43990 | 38066 ft | 345 kts | 270° |
| 2026-05-08 01:37 | 32.39987 | -89.48711 | 38065 ft | 345 kts | 270° |
| 2026-05-08 01:37 | 32.40149 | -89.54388 | 38043 ft | 345 kts | 270° |
| 2026-05-08 01:38 | 32.40304 | -89.60060 | 38040 ft | 345 kts | 270° |
| 2026-05-08 01:38 | 32.40455 | -89.65736 | 38041 ft | 345 kts | 270° |
| 2026-05-08 01:39 | 32.40612 | -89.71410 | 38055 ft | 345 kts | 270° |
| 2026-05-08 01:39 | 32.40763 | -89.77091 | 38054 ft | 345 kts | 270° |
| 2026-05-08 01:40 | 32.40908 | -89.82764 | 38052 ft | 345 kts | 270° |
| 2026-05-08 01:40 | 32.41060 | -89.88440 | 38053 ft | 345 kts | 270° |
| 2026-05-08 01:41 | 32.41206 | -89.94116 | 38051 ft | 345 kts | 270° |
| 2026-05-08 01:41 | 32.41345 | -89.99798 | 38078 ft | 345 kts | 270° |
| 2026-05-08 01:42 | 32.41482 | -90.05479 | 38092 ft | 345 kts | 270° |
| 2026-05-08 01:42 | 32.41617 | -90.11113 | 38089 ft | 345 kts | 270° |
| 2026-05-08 01:43 | 32.41751 | -90.16775 | 38086 ft | 344 kts | 270° |
| 2026-05-08 01:43 | 32.41885 | -90.22469 | 38084 ft | 344 kts | 270° |
| 2026-05-08 01:44 | 32.42014 | -90.28099 | 38079 ft | 344 kts | 270° |
| 2026-05-08 01:44 | 32.42140 | -90.33750 | 38079 ft | 344 kts | 270° |
| 2026-05-08 01:45 | 32.42257 | -90.39396 | 38074 ft | 343 kts | 269° |
| 2026-05-08 01:45 | 32.42373 | -90.45063 | 38073 ft | 344 kts | 269° |
| 2026-05-08 01:46 | 32.42493 | -90.50731 | 38078 ft | 345 kts | 269° |
| 2026-05-08 01:46 | 32.42610 | -90.56412 | 38082 ft | 345 kts | 269° |
| 2026-05-08 01:47 | 32.42725 | -90.62088 | 38088 ft | 345 kts | 269° |
| 2026-05-08 01:47 | 32.42830 | -90.67763 | 38089 ft | 345 kts | 269° |
| 2026-05-08 01:48 | 32.42998 | -90.76272 | 38094 ft | 345 kts | 269° |
| 2026-05-08 01:48 | 32.43106 | -90.81943 | 38115 ft | 345 kts | 269° |
| 2026-05-08 01:49 | 32.43203 | -90.87616 | 38111 ft | 344 kts | 269° |
| 2026-05-08 01:49 | 32.43296 | -90.93282 | 38118 ft | 344 kts | 269° |
| 2026-05-08 01:50 | 32.43395 | -90.98944 | 38084 ft | 344 kts | 269° |
| 2026-05-08 01:50 | 32.43489 | -91.04613 | 38085 ft | 344 kts | 269° |
| 2026-05-08 01:51 | 32.43576 | -91.10278 | 38085 ft | 344 kts | 269° |
| 2026-05-08 01:51 | 32.43661 | -91.15937 | 38090 ft | 344 kts | 269° |
| 2026-05-08 01:52 | 32.43752 | -91.21590 | 38094 ft | 344 kts | 269° |
| 2026-05-08 01:52 | 32.43838 | -91.27208 | 38097 ft | 343 kts | 269° |
| 2026-05-08 01:53 | 32.43914 | -91.32855 | 38055 ft | 343 kts | 269° |
| 2026-05-08 01:53 | 32.43989 | -91.38489 | 38062 ft | 343 kts | 269° |
| 2026-05-08 01:54 | 32.44063 | -91.44128 | 38078 ft | 343 kts | 269° |
| 2026-05-08 01:54 | 32.44140 | -91.49772 | 38094 ft | 343 kts | 269° |
| 2026-05-08 01:55 | 32.44215 | -91.55420 | 38093 ft | 343 kts | 269° |
| 2026-05-08 01:55 | 32.44289 | -91.61073 | 38095 ft | 343 kts | 269° |
| 2026-05-08 01:56 | 32.44355 | -91.66723 | 38089 ft | 343 kts | 268° |
| 2026-05-08 01:56 | 32.44409 | -91.72373 | 38085 ft | 343 kts | 268° |
| 2026-05-08 01:57 | 32.44468 | -91.78026 | 38091 ft | 344 kts | 269° |
| 2026-05-08 01:57 | 32.44529 | -91.83683 | 38089 ft | 343 kts | 268° |
| 2026-05-08 01:58 | 32.44582 | -91.89339 | 38093 ft | 343 kts | 268° |
| 2026-05-08 01:58 | 32.44638 | -91.94994 | 38110 ft | 343 kts | 268° |
| 2026-05-08 01:59 | 32.44692 | -92.00645 | 38107 ft | 343 kts | 268° |
| 2026-05-08 01:59 | 32.44739 | -92.06293 | 38104 ft | 343 kts | 268° |
| 2026-05-08 02:00 | 32.44780 | -92.11934 | 38097 ft | 342 kts | 268° |
| 2026-05-08 02:00 | 32.44823 | -92.17566 | 38094 ft | 342 kts | 268° |
| 2026-05-08 02:01 | 32.44856 | -92.23198 | 38087 ft | 342 kts | 268° |
| 2026-05-08 02:01 | 32.44894 | -92.28827 | 38085 ft | 342 kts | 268° |
| 2026-05-08 02:02 | 32.44929 | -92.34450 | 38077 ft | 342 kts | 268° |
| 2026-05-08 02:02 | 32.44968 | -92.40050 | 38075 ft | 342 kts | 268° |
| 2026-05-08 02:03 | 32.45007 | -92.45685 | 38073 ft | 342 kts | 268° |
| 2026-05-08 02:03 | 32.45029 | -92.51321 | 38072 ft | 343 kts | 268° |
| 2026-05-08 02:04 | 32.45051 | -92.56962 | 38073 ft | 343 kts | 268° |
| 2026-05-08 02:04 | 32.45075 | -92.62611 | 38075 ft | 343 kts | 268° |
| 2026-05-08 02:05 | 32.45101 | -92.68252 | 38083 ft | 343 kts | 268° |
| 2026-05-08 02:05 | 32.45117 | -92.73901 | 38080 ft | 343 kts | 268° |
| 2026-05-08 02:06 | 32.45128 | -92.79555 | 38079 ft | 343 kts | 268° |
| 2026-05-08 02:06 | 32.45138 | -92.85211 | 38090 ft | 344 kts | 268° |
| 2026-05-08 02:07 | 32.45148 | -92.90880 | 38091 ft | 344 kts | 268° |
| 2026-05-08 02:07 | 32.45258 | -92.96559 | 38091 ft | 345 kts | 269° |
| 2026-05-08 02:08 | 32.45479 | -93.02240 | 38092 ft | 345 kts | 269° |
| 2026-05-08 02:08 | 32.45697 | -93.07924 | 38088 ft | 346 kts | 269° |
| 2026-05-08 02:09 | 32.45883 | -93.13625 | 38091 ft | 346 kts | 269° |
| 2026-05-08 02:09 | 32.46061 | -93.19322 | 38094 ft | 347 kts | 269° |
| 2026-05-08 02:10 | 32.46241 | -93.25028 | 38095 ft | 347 kts | 269° |
| 2026-05-08 02:10 | 32.46419 | -93.30733 | 38096 ft | 347 kts | 269° |
| 2026-05-08 02:11 | 32.46586 | -93.36403 | 38098 ft | 347 kts | 269° |
| 2026-05-08 02:11 | 32.46760 | -93.42113 | 38098 ft | 347 kts | 269° |
| 2026-05-08 02:12 | 32.46932 | -93.47816 | 38090 ft | 347 kts | 269° |
| 2026-05-08 02:12 | 32.47094 | -93.53519 | 38089 ft | 347 kts | 269° |
| 2026-05-08 02:13 | 32.47249 | -93.59216 | 38089 ft | 347 kts | 269° |
| 2026-05-08 02:13 | 32.47409 | -93.64928 | 38089 ft | 347 kts | 269° |
| 2026-05-08 02:14 | 32.47571 | -93.70636 | 38090 ft | 347 kts | 269° |
| 2026-05-08 02:14 | 32.47725 | -93.76347 | 38090 ft | 347 kts | 268° |
| 2026-05-08 02:15 | 32.47876 | -93.82055 | 38089 ft | 347 kts | 268° |
| 2026-05-08 02:15 | 32.48026 | -93.87772 | 38090 ft | 347 kts | 268° |
| 2026-05-08 02:16 | 32.48173 | -93.93483 | 38090 ft | 347 kts | 268° |
| 2026-05-08 02:16 | 32.48321 | -93.99205 | 38092 ft | 347 kts | 268° |
| 2026-05-08 02:17 | 32.48462 | -94.04920 | 38092 ft | 347 kts | 268° |
| 2026-05-08 02:17 | 32.48597 | -94.10639 | 38082 ft | 348 kts | 268° |
| 2026-05-08 02:18 | 32.48732 | -94.16368 | 38077 ft | 348 kts | 268° |
| 2026-05-08 02:18 | 32.48844 | -94.21123 | 38074 ft | 348 kts | 268° |
| 2026-05-08 02:19 | 32.48977 | -94.26846 | 38070 ft | 348 kts | 268° |
| 2026-05-08 02:19 | 32.49114 | -94.32585 | 38071 ft | 348 kts | 268° |
| 2026-05-08 02:20 | 32.49263 | -94.39253 | 38070 ft | 348 kts | 268° |
| 2026-05-08 02:20 | 32.49360 | -94.44060 | 38074 ft | 348 kts | 268° |
| 2026-05-08 02:21 | 32.49477 | -94.49791 | 38089 ft | 348 kts | 268° |
| 2026-05-08 02:21 | 32.49600 | -94.55502 | 38088 ft | 348 kts | 268° |
| 2026-05-08 02:22 | 32.49717 | -94.61246 | 38086 ft | 349 kts | 267° |
| 2026-05-08 02:22 | 32.49827 | -94.66989 | 38086 ft | 349 kts | 267° |
| 2026-05-08 02:23 | 32.49938 | -94.72732 | 38082 ft | 349 kts | 267° |
| 2026-05-08 02:23 | 32.50052 | -94.78479 | 38083 ft | 349 kts | 267° |
| 2026-05-08 02:24 | 32.50162 | -94.84227 | 38082 ft | 349 kts | 267° |
| 2026-05-08 02:24 | 32.50264 | -94.89970 | 38082 ft | 349 kts | 267° |
| 2026-05-08 02:25 | 32.50369 | -94.95720 | 38093 ft | 349 kts | 267° |
| 2026-05-08 02:25 | 32.50467 | -95.01468 | 38090 ft | 349 kts | 267° |
| 2026-05-08 02:26 | 32.50561 | -95.07229 | 38087 ft | 350 kts | 267° |
| 2026-05-08 02:26 | 32.50651 | -95.12992 | 38086 ft | 350 kts | 267° |
| 2026-05-08 02:27 | 32.50742 | -95.18759 | 38082 ft | 350 kts | 267° |
| 2026-05-08 02:27 | 32.50833 | -95.24526 | 38085 ft | 350 kts | 267° |
| 2026-05-08 02:28 | 32.50921 | -95.30296 | 38093 ft | 349 kts | 267° |
| 2026-05-08 02:28 | 32.51004 | -95.36038 | 38086 ft | 348 kts | 267° |
| 2026-05-08 02:29 | 32.51082 | -95.41775 | 38083 ft | 349 kts | 267° |
| 2026-05-08 02:29 | 32.51157 | -95.47481 | 38083 ft | 349 kts | 267° |
| 2026-05-08 02:30 | 32.51233 | -95.53240 | 38083 ft | 349 kts | 267° |
| 2026-05-08 02:30 | 32.51311 | -95.59030 | 38083 ft | 349 kts | 267° |
| 2026-05-08 02:31 | 32.51378 | -95.64746 | 38080 ft | 349 kts | 267° |
| 2026-05-08 02:31 | 32.51443 | -95.70507 | 38080 ft | 350 kts | 267° |
| 2026-05-08 02:32 | 32.51507 | -95.76271 | 38078 ft | 350 kts | 266° |
| 2026-05-08 02:32 | 32.51571 | -95.82048 | 38074 ft | 351 kts | 266° |
| 2026-05-08 02:33 | 32.51636 | -95.87830 | 38079 ft | 351 kts | 266° |
| 2026-05-08 02:33 | 32.51692 | -95.93614 | 38079 ft | 351 kts | 266° |
| 2026-05-08 02:34 | 32.51749 | -95.99399 | 38075 ft | 351 kts | 266° |
| 2026-05-08 02:34 | 32.51798 | -96.05170 | 38074 ft | 351 kts | 266° |
| 2026-05-08 02:35 | 32.51849 | -96.10957 | 38074 ft | 351 kts | 266° |
| 2026-05-08 02:35 | 32.51898 | -96.16733 | 38071 ft | 351 kts | 266° |
| 2026-05-08 02:36 | 32.51940 | -96.22521 | 38069 ft | 351 kts | 266° |
| 2026-05-08 02:36 | 32.51978 | -96.28305 | 38068 ft | 351 kts | 266° |
| 2026-05-08 02:37 | 32.52015 | -96.34095 | 38068 ft | 351 kts | 266° |
| 2026-05-08 02:37 | 32.52053 | -96.39851 | 38066 ft | 351 kts | 266° |
| 2026-05-08 02:38 | 32.52088 | -96.45637 | 38078 ft | 351 kts | 266° |
| 2026-05-08 02:38 | 32.52114 | -96.51427 | 38082 ft | 352 kts | 266° |
| 2026-05-08 02:39 | 32.52144 | -96.57232 | 38072 ft | 352 kts | 266° |
| 2026-05-08 02:39 | 32.52175 | -96.63034 | 38071 ft | 352 kts | 266° |
| 2026-05-08 02:40 | 32.52199 | -96.68837 | 38070 ft | 352 kts | 266° |
| 2026-05-08 02:40 | 32.52215 | -96.74631 | 38069 ft | 352 kts | 266° |
| 2026-05-08 02:41 | 32.52233 | -96.80429 | 38066 ft | 352 kts | 266° |
| 2026-05-08 02:41 | 32.52246 | -96.86230 | 38085 ft | 352 kts | 265° |
| 2026-05-08 02:42 | 32.52254 | -96.92025 | 38084 ft | 352 kts | 265° |
| 2026-05-08 02:42 | 32.52260 | -96.97819 | 38081 ft | 352 kts | 265° |
| 2026-05-08 02:43 | 32.52270 | -97.03614 | 38076 ft | 352 kts | 265° |
| 2026-05-08 02:43 | 32.52282 | -97.09408 | 38067 ft | 352 kts | 265° |
| 2026-05-08 02:44 | 32.52288 | -97.15206 | 38074 ft | 352 kts | 265° |
| 2026-05-08 02:44 | 32.52284 | -97.21016 | 38078 ft | 352 kts | 265° |
| 2026-05-08 02:45 | 32.52280 | -97.26790 | 38078 ft | 352 kts | 265° |
| 2026-05-08 02:45 | 32.52276 | -97.32585 | 38078 ft | 352 kts | 265° |
| 2026-05-08 02:46 | 32.52265 | -97.38380 | 38077 ft | 352 kts | 265° |
| 2026-05-08 02:46 | 32.52249 | -97.44184 | 38075 ft | 352 kts | 265° |
| 2026-05-08 02:47 | 32.52235 | -97.49991 | 38074 ft | 352 kts | 265° |
| 2026-05-08 02:47 | 32.52223 | -97.55807 | 38058 ft | 352 kts | 265° |
| 2026-05-08 02:48 | 32.52201 | -97.61613 | 38075 ft | 352 kts | 265° |
| 2026-05-08 02:48 | 32.52177 | -97.67418 | 38069 ft | 352 kts | 265° |
| 2026-05-08 02:49 | 32.52153 | -97.73213 | 38065 ft | 352 kts | 265° |
| 2026-05-08 02:49 | 32.52126 | -97.78975 | 38063 ft | 352 kts | 265° |
| 2026-05-08 02:50 | 32.52098 | -97.84806 | 38061 ft | 351 kts | 265° |
| 2026-05-08 02:50 | 32.52063 | -97.90591 | 38057 ft | 351 kts | 265° |
| 2026-05-08 02:51 | 32.52022 | -97.96346 | 38056 ft | 351 kts | 265° |
| 2026-05-08 02:51 | 32.51989 | -98.02136 | 38049 ft | 352 kts | 265° |
| 2026-05-08 02:52 | 32.51949 | -98.07942 | 38041 ft | 352 kts | 265° |
| 2026-05-08 02:52 | 32.51906 | -98.13746 | 38038 ft | 352 kts | 265° |
| 2026-05-08 02:53 | 32.51863 | -98.19557 | 38036 ft | 353 kts | 265° |
| 2026-05-08 02:53 | 32.51809 | -98.25368 | 38039 ft | 353 kts | 265° |
| 2026-05-08 02:54 | 32.51755 | -98.31176 | 38041 ft | 353 kts | 265° |
| 2026-05-08 02:54 | 32.51699 | -98.36998 | 38045 ft | 354 kts | 264° |
| 2026-05-08 02:55 | 32.51617 | -98.45746 | 38045 ft | 354 kts | 264° |
| 2026-05-08 02:56 | 32.51558 | -98.51588 | 38051 ft | 354 kts | 264° |
| 2026-05-08 02:56 | 32.51488 | -98.57422 | 38060 ft | 354 kts | 264° |
| 2026-05-08 02:57 | 32.51419 | -98.63262 | 38064 ft | 354 kts | 264° |
| 2026-05-08 02:57 | 32.51354 | -98.69102 | 38070 ft | 354 kts | 264° |
| 2026-05-08 02:58 | 32.51285 | -98.74944 | 38069 ft | 355 kts | 264° |
| 2026-05-08 02:58 | 32.51207 | -98.80782 | 38069 ft | 355 kts | 264° |
| 2026-05-08 02:59 | 32.51131 | -98.86642 | 38072 ft | 355 kts | 264° |
| 2026-05-08 02:59 | 32.51050 | -98.92499 | 38069 ft | 355 kts | 264° |
| 2026-05-08 03:00 | 32.50964 | -98.98321 | 38038 ft | 355 kts | 264° |
| 2026-05-08 03:00 | 32.50877 | -99.04174 | 38044 ft | 356 kts | 264° |
| 2026-05-08 03:01 | 32.50787 | -99.10031 | 38050 ft | 356 kts | 263° |
| 2026-05-08 03:01 | 32.50701 | -99.15905 | 38045 ft | 356 kts | 263° |
| 2026-05-08 03:02 | 32.50606 | -99.21767 | 38043 ft | 356 kts | 263° |
| 2026-05-08 03:02 | 32.50506 | -99.27634 | 38042 ft | 356 kts | 263° |
| 2026-05-08 03:03 | 32.50404 | -99.33497 | 38042 ft | 356 kts | 263° |
| 2026-05-08 03:03 | 32.50321 | -99.38376 | 38061 ft | 356 kts | 263° |
| 2026-05-08 03:04 | 32.50223 | -99.44244 | 38065 ft | 356 kts | 263° |
| 2026-05-08 03:04 | 32.50115 | -99.50112 | 38085 ft | 356 kts | 263° |
| 2026-05-08 03:05 | 32.50003 | -99.55984 | 38090 ft | 357 kts | 263° |
| 2026-05-08 03:05 | 32.49888 | -99.61867 | 38093 ft | 357 kts | 263° |
| 2026-05-08 03:06 | 32.49768 | -99.67740 | 38095 ft | 357 kts | 263° |
| 2026-05-08 03:06 | 32.49652 | -99.73624 | 38093 ft | 357 kts | 263° |
| 2026-05-08 03:07 | 32.49530 | -99.79497 | 38069 ft | 357 kts | 263° |
| 2026-05-08 03:07 | 32.49409 | -99.85379 | 38068 ft | 357 kts | 263° |
| 2026-05-08 03:08 | 32.49288 | -99.91256 | 38066 ft | 357 kts | 263° |
| 2026-05-08 03:08 | 32.49159 | -99.97134 | 38059 ft | 357 kts | 263° |
| 2026-05-08 03:09 | 32.49022 | -100.03020 | 38060 ft | 357 kts | 262° |
| 2026-05-08 03:09 | 32.48882 | -100.08893 | 38035 ft | 357 kts | 262° |
| 2026-05-08 03:10 | 32.48744 | -100.14767 | 38034 ft | 357 kts | 262° |
| 2026-05-08 03:10 | 32.48607 | -100.20647 | 38032 ft | 357 kts | 262° |
| 2026-05-08 03:11 | 32.48460 | -100.26534 | 38013 ft | 358 kts | 262° |
| 2026-05-08 03:11 | 32.48290 | -100.32385 | 38102 ft | 357 kts | 261° |
| 2026-05-08 03:12 | 32.47852 | -100.38224 | 38111 ft | 355 kts | 258° |
| 2026-05-08 03:12 | 32.47279 | -100.44039 | 38112 ft | 355 kts | 258° |
| 2026-05-08 03:13 | 32.46721 | -100.49854 | 38113 ft | 356 kts | 258° |
| 2026-05-08 03:13 | 32.46195 | -100.55676 | 38113 ft | 356 kts | 259° |
| 2026-05-08 03:14 | 32.45683 | -100.61510 | 38096 ft | 356 kts | 258° |
| 2026-05-08 03:14 | 32.45161 | -100.67345 | 38072 ft | 357 kts | 258° |
| 2026-05-08 03:15 | 32.44623 | -100.73192 | 38047 ft | 357 kts | 258° |
| 2026-05-08 03:15 | 32.44086 | -100.79034 | 38031 ft | 357 kts | 258° |
| 2026-05-08 03:16 | 32.43554 | -100.84882 | 38024 ft | 357 kts | 258° |
| 2026-05-08 03:16 | 32.43015 | -100.90730 | 38035 ft | 357 kts | 258° |
| 2026-05-08 03:17 | 32.42475 | -100.96572 | 38038 ft | 357 kts | 258° |
| 2026-05-08 03:17 | 32.41935 | -101.02428 | 38025 ft | 358 kts | 258° |
| 2026-05-08 03:18 | 32.41393 | -101.08280 | 38025 ft | 358 kts | 258° |
| 2026-05-08 03:18 | 32.40839 | -101.14127 | 38015 ft | 358 kts | 258° |
| 2026-05-08 03:19 | 32.40281 | -101.19977 | 38004 ft | 358 kts | 258° |
| 2026-05-08 03:19 | 32.39726 | -101.25827 | 37998 ft | 358 kts | 258° |
| 2026-05-08 03:20 | 32.39169 | -101.31673 | 38005 ft | 358 kts | 258° |
| 2026-05-08 03:20 | 32.38604 | -101.37532 | 37995 ft | 359 kts | 258° |
| 2026-05-08 03:21 | 32.38041 | -101.43395 | 37993 ft | 359 kts | 258° |
| 2026-05-08 03:21 | 32.37472 | -101.49263 | 37998 ft | 359 kts | 258° |
| 2026-05-08 03:22 | 32.36892 | -101.55141 | 38001 ft | 360 kts | 258° |
| 2026-05-08 03:22 | 32.36319 | -101.61014 | 37996 ft | 360 kts | 258° |
| 2026-05-08 03:23 | 32.35746 | -101.66897 | 37995 ft | 360 kts | 258° |
| 2026-05-08 03:23 | 32.35166 | -101.72784 | 38000 ft | 361 kts | 257° |
| 2026-05-08 03:24 | 32.34581 | -101.78676 | 37989 ft | 361 kts | 257° |
| 2026-05-08 03:24 | 32.33989 | -101.84575 | 38011 ft | 361 kts | 257° |
| 2026-05-08 03:25 | 32.33394 | -101.90482 | 37990 ft | 362 kts | 257° |
| 2026-05-08 03:25 | 32.32796 | -101.96394 | 38004 ft | 362 kts | 257° |
| 2026-05-08 03:26 | 32.32202 | -102.02304 | 38015 ft | 362 kts | 257° |
| 2026-05-08 03:26 | 32.31601 | -102.08225 | 38015 ft | 363 kts | 257° |
| 2026-05-08 03:27 | 32.30997 | -102.14113 | 38012 ft | 364 kts | 257° |
| 2026-05-08 03:27 | 32.30383 | -102.20060 | 37969 ft | 364 kts | 257° |
| 2026-05-08 03:28 | 32.29766 | -102.26011 | 37971 ft | 365 kts | 257° |
| 2026-05-08 03:28 | 32.29151 | -102.31975 | 37975 ft | 365 kts | 257° |
| 2026-05-08 03:29 | 32.28534 | -102.37935 | 37979 ft | 365 kts | 257° |
| 2026-05-08 03:29 | 32.27912 | -102.43898 | 37991 ft | 366 kts | 257° |
| 2026-05-08 03:30 | 32.26963 | -102.52868 | 37975 ft | 367 kts | 257° |
| 2026-05-08 03:31 | 32.25697 | -102.64862 | 37971 ft | 368 kts | 257° |
| 2026-05-08 03:32 | 32.24732 | -102.73857 | 37974 ft | 368 kts | 257° |
| 2026-05-08 03:32 | 32.24090 | -102.79824 | 37979 ft | 369 kts | 257° |
| 2026-05-08 03:33 | 32.23435 | -102.85851 | 37958 ft | 371 kts | 257° |
| 2026-05-08 03:33 | 32.22776 | -102.91902 | 37953 ft | 372 kts | 257° |
| 2026-05-08 03:34 | 32.22122 | -102.97964 | 37954 ft | 372 kts | 257° |
| 2026-05-08 03:34 | 32.21460 | -103.04028 | 37957 ft | 373 kts | 257° |
| 2026-05-08 03:35 | 32.20791 | -103.10104 | 37957 ft | 373 kts | 257° |
| 2026-05-08 03:35 | 32.20118 | -103.16187 | 37960 ft | 374 kts | 258° |
| 2026-05-08 03:36 | 32.19438 | -103.22277 | 37949 ft | 375 kts | 258° |
| 2026-05-08 03:36 | 32.18759 | -103.28386 | 37948 ft | 376 kts | 258° |
| 2026-05-08 03:37 | 32.18073 | -103.34515 | 37950 ft | 377 kts | 257° |
| 2026-05-08 03:37 | 32.17378 | -103.40648 | 37948 ft | 377 kts | 257° |
| 2026-05-08 03:38 | 32.16691 | -103.46749 | 37955 ft | 377 kts | 258° |
| 2026-05-08 03:38 | 32.16000 | -103.52892 | 37963 ft | 378 kts | 258° |
| 2026-05-08 03:39 | 32.15298 | -103.59048 | 37949 ft | 379 kts | 258° |
| 2026-05-08 03:39 | 32.14587 | -103.65212 | 37937 ft | 379 kts | 258° |
| 2026-05-08 03:40 | 32.13877 | -103.71385 | 37937 ft | 380 kts | 258° |
| 2026-05-08 03:40 | 32.13166 | -103.77568 | 37938 ft | 380 kts | 258° |
| 2026-05-08 03:41 | 32.12455 | -103.83741 | 37938 ft | 379 kts | 257° |
| 2026-05-08 03:41 | 32.11737 | -103.89889 | 37969 ft | 379 kts | 257° |
| 2026-05-08 03:42 | 32.11021 | -103.96032 | 37954 ft | 378 kts | 257° |
| 2026-05-08 03:42 | 32.10295 | -104.02189 | 37948 ft | 378 kts | 257° |
| 2026-05-08 03:43 | 32.09566 | -104.08334 | 37977 ft | 378 kts | 257° |
| 2026-05-08 03:43 | 32.08834 | -104.14472 | 37984 ft | 378 kts | 257° |
| 2026-05-08 03:44 | 32.08102 | -104.20620 | 37991 ft | 378 kts | 257° |
| 2026-05-08 03:44 | 32.07378 | -104.26762 | 37994 ft | 379 kts | 257° |
| 2026-05-08 03:45 | 32.06642 | -104.32919 | 37978 ft | 380 kts | 257° |
| 2026-05-08 03:45 | 32.05899 | -104.39044 | 37972 ft | 380 kts | 257° |
| 2026-05-08 03:46 | 32.05153 | -104.45224 | 37958 ft | 381 kts | 257° |
| 2026-05-08 03:46 | 32.04402 | -104.51406 | 37947 ft | 381 kts | 257° |
| 2026-05-08 03:47 | 32.03647 | -104.57590 | 37949 ft | 381 kts | 257° |
| 2026-05-08 03:47 | 32.03006 | -104.62770 | 37954 ft | 382 kts | 257° |
| 2026-05-08 03:48 | 32.02243 | -104.68967 | 37953 ft | 382 kts | 257° |
| 2026-05-08 03:48 | 32.01481 | -104.75163 | 37947 ft | 382 kts | 257° |
| 2026-05-08 03:49 | 32.00710 | -104.81371 | 37942 ft | 383 kts | 257° |
| 2026-05-08 03:49 | 31.99938 | -104.87533 | 37946 ft | 383 kts | 257° |
| 2026-05-08 03:50 | 31.99162 | -104.93784 | 37967 ft | 383 kts | 257° |
| 2026-05-08 03:50 | 31.98389 | -104.99957 | 37940 ft | 384 kts | 257° |
| 2026-05-08 03:51 | 31.97600 | -105.06224 | 37928 ft | 384 kts | 257° |
| 2026-05-08 03:51 | 31.96814 | -105.12409 | 37916 ft | 385 kts | 257° |
| 2026-05-08 03:52 | 31.96022 | -105.18639 | 37913 ft | 385 kts | 257° |
| 2026-05-08 03:52 | 31.95232 | -105.24884 | 37906 ft | 385 kts | 257° |
| 2026-05-08 03:53 | 31.94436 | -105.31130 | 37922 ft | 386 kts | 257° |
| 2026-05-08 03:53 | 31.93626 | -105.37394 | 37902 ft | 388 kts | 257° |
| 2026-05-08 03:54 | 31.92808 | -105.43687 | 37897 ft | 390 kts | 257° |
| 2026-05-08 03:54 | 31.91989 | -105.50003 | 37896 ft | 391 kts | 257° |
| 2026-05-08 03:55 | 31.91170 | -105.56339 | 37899 ft | 391 kts | 257° |
| 2026-05-08 03:55 | 31.90345 | -105.62672 | 37903 ft | 392 kts | 257° |
| 2026-05-08 03:56 | 31.89513 | -105.69014 | 37901 ft | 393 kts | 257° |
| 2026-05-08 03:56 | 31.88677 | -105.75392 | 37890 ft | 395 kts | 257° |
| 2026-05-08 03:57 | 31.87831 | -105.81788 | 37886 ft | 396 kts | 257° |
| 2026-05-08 03:57 | 31.86974 | -105.88198 | 37892 ft | 397 kts | 257° |
| 2026-05-08 03:58 | 31.86116 | -105.94631 | 37882 ft | 398 kts | 257° |
| 2026-05-08 03:58 | 31.85257 | -106.01064 | 37918 ft | 399 kts | 257° |
| 2026-05-08 03:59 | 31.84390 | -106.07520 | 37928 ft | 400 kts | 257° |
| 2026-05-08 03:59 | 31.83518 | -106.14000 | 37960 ft | 401 kts | 257° |
| 2026-05-08 04:00 | 31.82639 | -106.20487 | 37989 ft | 402 kts | 257° |
| 2026-05-08 04:00 | 31.81785 | -106.26953 | 38024 ft | 404 kts | 261° |
| 2026-05-08 04:01 | 31.82005 | -106.33613 | 38035 ft | 410 kts | 270° |
| 2026-05-08 04:01 | 31.82519 | -106.40283 | 38048 ft | 408 kts | 270° |
| 2026-05-08 04:02 | 31.83020 | -106.46927 | 38046 ft | 408 kts | 270° |
| 2026-05-08 04:02 | 31.83511 | -106.53569 | 38026 ft | 408 kts | 270° |
| 2026-05-08 04:03 | 31.84003 | -106.60231 | 38063 ft | 409 kts | 270° |
| 2026-05-08 04:03 | 31.84739 | -106.70215 | 38081 ft | 408 kts | 270° |
| 2026-05-08 04:04 | 31.85215 | -106.76870 | 38076 ft | 409 kts | 270° |
| 2026-05-08 04:04 | 31.85693 | -106.83537 | 38051 ft | 409 kts | 270° |
| 2026-05-08 04:05 | 31.86176 | -106.90198 | 37865 ft | 409 kts | 270° |
| 2026-05-08 04:05 | 31.86652 | -106.96875 | 37865 ft | 409 kts | 270° |
| 2026-05-08 04:06 | 31.87120 | -107.03540 | 37863 ft | 409 kts | 270° |
| 2026-05-08 04:06 | 31.87581 | -107.10176 | 37891 ft | 409 kts | 270° |
| 2026-05-08 04:07 | 31.88050 | -107.16857 | 37867 ft | 410 kts | 270° |
| 2026-05-08 04:07 | 31.88512 | -107.23543 | 37864 ft | 410 kts | 270° |
| 2026-05-08 04:08 | 31.88971 | -107.30230 | 37862 ft | 410 kts | 270° |
| 2026-05-08 04:08 | 31.89428 | -107.36924 | 37863 ft | 411 kts | 270° |
| 2026-05-08 04:09 | 31.89875 | -107.43627 | 37883 ft | 411 kts | 270° |
| 2026-05-08 04:09 | 31.90323 | -107.50323 | 37881 ft | 411 kts | 270° |
| 2026-05-08 04:10 | 31.90768 | -107.57029 | 37878 ft | 411 kts | 270° |
| 2026-05-08 04:10 | 31.91211 | -107.63730 | 37889 ft | 411 kts | 270° |
| 2026-05-08 04:11 | 31.91652 | -107.70449 | 37880 ft | 412 kts | 270° |
| 2026-05-08 04:11 | 31.92086 | -107.77185 | 37883 ft | 413 kts | 270° |
| 2026-05-08 04:12 | 31.92532 | -107.83955 | 37849 ft | 416 kts | 270° |
| 2026-05-08 04:12 | 31.92996 | -107.90750 | 37851 ft | 417 kts | 270° |
| 2026-05-08 04:13 | 31.93459 | -107.97571 | 37853 ft | 418 kts | 270° |
| 2026-05-08 04:13 | 31.93915 | -108.04404 | 37860 ft | 419 kts | 270° |
| 2026-05-08 04:14 | 31.94367 | -108.11247 | 37872 ft | 419 kts | 270° |
| 2026-05-08 04:14 | 31.94806 | -108.18052 | 37880 ft | 420 kts | 270° |
| 2026-05-08 04:15 | 31.95250 | -108.24898 | 37883 ft | 420 kts | 270° |
| 2026-05-08 04:15 | 31.95694 | -108.31755 | 37885 ft | 420 kts | 270° |
| 2026-05-08 04:16 | 31.96128 | -108.38615 | 37885 ft | 420 kts | 270° |
| 2026-05-08 04:16 | 31.96557 | -108.45472 | 37918 ft | 420 kts | 270° |
| 2026-05-08 04:17 | 31.96984 | -108.52362 | 37877 ft | 422 kts | 270° |
| 2026-05-08 04:17 | 31.97416 | -108.59267 | 37868 ft | 424 kts | 270° |
| 2026-05-08 04:18 | 31.97846 | -108.66191 | 37867 ft | 425 kts | 270° |
| 2026-05-08 04:18 | 31.98270 | -108.73137 | 37881 ft | 425 kts | 270° |
| 2026-05-08 04:19 | 31.98480 | -108.76617 | 37676 ft | 426 kts | 270° |
| 2026-05-08 04:19 | 31.98687 | -108.80098 | 37410 ft | 428 kts | 270° |
| 2026-05-08 04:19 | 31.98895 | -108.83604 | 37151 ft | 431 kts | 270° |
| 2026-05-08 04:19 | 31.99105 | -108.87130 | 36905 ft | 433 kts | 270° |
| 2026-05-08 04:20 | 31.99316 | -108.90675 | 36662 ft | 434 kts | 270° |
| 2026-05-08 04:20 | 31.99526 | -108.94220 | 36406 ft | 435 kts | 270° |
| 2026-05-08 04:20 | 31.99735 | -108.97780 | 36158 ft | 436 kts | 270° |
| 2026-05-08 04:20 | 31.99945 | -109.01350 | 35916 ft | 437 kts | 271° |
| 2026-05-08 04:21 | 32.00157 | -109.04920 | 35670 ft | 437 kts | 271° |
| 2026-05-08 04:21 | 32.00368 | -109.08499 | 35424 ft | 438 kts | 271° |
| 2026-05-08 04:21 | 32.00576 | -109.12085 | 35207 ft | 439 kts | 270° |
| 2026-05-08 04:21 | 32.00781 | -109.15693 | 34967 ft | 443 kts | 271° |
| 2026-05-08 04:22 | 32.00986 | -109.19324 | 34735 ft | 446 kts | 271° |
| 2026-05-08 04:22 | 32.01194 | -109.22978 | 34503 ft | 448 kts | 271° |
| 2026-05-08 04:22 | 32.01401 | -109.26650 | 34285 ft | 450 kts | 271° |
| 2026-05-08 04:22 | 32.01607 | -109.30330 | 34051 ft | 451 kts | 271° |
| 2026-05-08 04:23 | 32.01815 | -109.34021 | 33809 ft | 452 kts | 271° |
| 2026-05-08 04:23 | 32.01989 | -109.37120 | 33585 ft | 453 kts | 271° |
| 2026-05-08 04:23 | 32.02193 | -109.40827 | 33329 ft | 454 kts | 271° |
| 2026-05-08 04:23 | 32.02399 | -109.44544 | 33065 ft | 455 kts | 272° |
| 2026-05-08 04:24 | 32.02606 | -109.48275 | 32823 ft | 459 kts | 273° |
| 2026-05-08 04:24 | 32.02811 | -109.52043 | 32566 ft | 464 kts | 273° |
| 2026-05-08 04:24 | 32.03017 | -109.55855 | 32311 ft | 467 kts | 274° |
| 2026-05-08 04:24 | 32.03223 | -109.59679 | 32059 ft | 469 kts | 274° |
| 2026-05-08 04:25 | 32.03427 | -109.63529 | 31808 ft | 471 kts | 274° |
| 2026-05-08 04:25 | 32.03629 | -109.67392 | 31571 ft | 472 kts | 274° |
| 2026-05-08 04:25 | 32.03831 | -109.71257 | 31322 ft | 473 kts | 274° |
| 2026-05-08 04:25 | 32.04036 | -109.75130 | 31077 ft | 474 kts | 274° |
| 2026-05-08 04:26 | 32.04243 | -109.79017 | 30835 ft | 476 kts | 275° |
| 2026-05-08 04:26 | 32.04452 | -109.82925 | 30620 ft | 480 kts | 276° |
| 2026-05-08 04:26 | 32.04660 | -109.86873 | 30375 ft | 485 kts | 276° |
| 2026-05-08 04:26 | 32.04866 | -109.90849 | 30146 ft | 487 kts | 276° |
| 2026-05-08 04:27 | 32.05070 | -109.94845 | 29908 ft | 489 kts | 276° |
| 2026-05-08 04:27 | 32.05275 | -109.98849 | 29625 ft | 490 kts | 276° |
| 2026-05-08 04:27 | 32.05479 | -110.02866 | 29337 ft | 491 kts | 276° |
| 2026-05-08 04:27 | 32.05682 | -110.06888 | 29036 ft | 494 kts | 277° |
| 2026-05-08 04:28 | 32.05885 | -110.10943 | 28775 ft | 497 kts | 276° |
| 2026-05-08 04:28 | 32.06085 | -110.15012 | 28501 ft | 498 kts | 277° |
| 2026-05-08 04:28 | 32.06283 | -110.19096 | 28233 ft | 500 kts | 277° |
| 2026-05-08 04:28 | 32.06474 | -110.23146 | 27607 ft | 498 kts | 277° |
| 2026-05-08 04:29 | 32.06666 | -110.27271 | 26248 ft | 497 kts | 276° |
| 2026-05-08 04:29 | 32.06854 | -110.31329 | 25015 ft | 495 kts | 275° |
| 2026-05-08 04:29 | 32.07036 | -110.35299 | 24094 ft | 486 kts | 275° |
| 2026-05-08 04:29 | 32.07219 | -110.39282 | 23030 ft | 478 kts | 274° |
| 2026-05-08 04:30 | 32.07400 | -110.43171 | 22083 ft | 468 kts | 274° |
| 2026-05-08 04:30 | 32.07551 | -110.46409 | 21304 ft | 460 kts | 274° |
| 2026-05-08 04:30 | 32.07721 | -110.50140 | 20436 ft | 452 kts | 274° |
| 2026-05-08 04:30 | 32.07886 | -110.53813 | 19586 ft | 444 kts | 274° |
| 2026-05-08 04:31 | 32.08045 | -110.57420 | 18772 ft | 438 kts | 274° |
| 2026-05-08 04:31 | 32.08203 | -110.60976 | 17982 ft | 432 kts | 274° |
| 2026-05-08 04:31 | 32.08358 | -110.64496 | 17223 ft | 426 kts | 274° |
| 2026-05-08 04:32 | 32.08792 | -110.74445 | 15036 ft | 412 kts | 274° |
| 2026-05-08 04:32 | 32.08947 | -110.77989 | 14177 ft | 409 kts | 274° |
| 2026-05-08 04:32 | 32.09091 | -110.81321 | 13296 ft | 406 kts | 274° |
| 2026-05-08 04:33 | 32.09233 | -110.84621 | 12424 ft | 400 kts | 274° |
| 2026-05-08 04:33 | 32.09541 | -110.87847 | 11584 ft | 393 kts | 283° |
| 2026-05-08 04:33 | 32.10455 | -110.90840 | 10819 ft | 384 kts | 298° |
| 2026-05-08 04:33 | 32.11899 | -110.93372 | 10637 ft | 359 kts | 311° |
| 2026-05-08 04:34 | 32.13634 | -110.95355 | 10523 ft | 337 kts | 322° |
| 2026-05-08 04:34 | 32.15405 | -110.97049 | 10405 ft | 320 kts | 322° |
| 2026-05-08 04:34 | 32.17094 | -110.98662 | 10262 ft | 306 kts | 322° |
| 2026-05-08 04:34 | 32.18731 | -111.00221 | 10027 ft | 299 kts | 322° |
| 2026-05-08 04:35 | 32.20321 | -111.01732 | 9884 ft | 288 kts | 322° |
| 2026-05-08 04:35 | 32.21856 | -111.03191 | 9745 ft | 278 kts | 323° |
| 2026-05-08 04:35 | 32.23339 | -111.04601 | 9561 ft | 269 kts | 323° |
| 2026-05-08 04:35 | 32.24761 | -111.05977 | 9430 ft | 261 kts | 321° |
| 2026-05-08 04:36 | 32.26112 | -111.07358 | 9302 ft | 252 kts | 320° |
| 2026-05-08 04:36 | 32.27416 | -111.08725 | 8953 ft | 253 kts | 320° |
| 2026-05-08 04:36 | 32.28736 | -111.10116 | 8590 ft | 255 kts | 320° |
| 2026-05-08 04:36 | 32.30054 | -111.11504 | 8311 ft | 252 kts | 320° |
| 2026-05-08 04:37 | 32.31359 | -111.12872 | 8062 ft | 249 kts | 320° |
| 2026-05-08 04:37 | 32.32651 | -111.14225 | 7805 ft | 246 kts | 320° |
| 2026-05-08 04:37 | 32.33922 | -111.15555 | 7555 ft | 243 kts | 319° |
| 2026-05-08 04:37 | 32.35175 | -111.16868 | 7386 ft | 239 kts | 319° |
| 2026-05-08 04:38 | 32.36408 | -111.18158 | 7150 ft | 235 kts | 320° |
| 2026-05-08 04:38 | 32.37622 | -111.19427 | 6919 ft | 231 kts | 320° |
| 2026-05-08 04:38 | 32.38815 | -111.20679 | 6692 ft | 227 kts | 319° |
| 2026-05-08 04:38 | 32.39984 | -111.21907 | 6474 ft | 222 kts | 319° |
| 2026-05-08 04:39 | 32.41131 | -111.23112 | 6245 ft | 218 kts | 319° |
| 2026-05-08 04:39 | 32.42258 | -111.24292 | 6028 ft | 214 kts | 319° |
| 2026-05-08 04:39 | 32.43347 | -111.25430 | 5823 ft | 210 kts | 319° |
| 2026-05-08 04:39 | 32.44482 | -111.26617 | 5592 ft | 224 kts | 319° |
| 2026-05-08 04:40 | 32.45655 | -111.27842 | 5382 ft | 225 kts | 319° |
| 2026-05-08 04:40 | 32.46830 | -111.29070 | 5160 ft | 225 kts | 319° |
| 2026-05-08 04:40 | 32.47998 | -111.30292 | 4939 ft | 224 kts | 318° |
| 2026-05-08 04:40 | 32.49157 | -111.31509 | 4714 ft | 222 kts | 318° |
| 2026-05-08 04:41 | 32.50313 | -111.32725 | 4487 ft | 221 kts | 319° |
| 2026-05-08 04:41 | 32.51474 | -111.33945 | 4265 ft | 220 kts | 318° |
| 2026-05-08 04:41 | 32.52616 | -111.35146 | 4057 ft | 219 kts | 319° |
| 2026-05-08 04:41 | 32.53737 | -111.36323 | 3842 ft | 218 kts | 319° |
| 2026-05-08 04:42 | 32.54885 | -111.37529 | 3624 ft | 218 kts | 319° |
| 2026-05-08 04:42 | 32.56005 | -111.38701 | 3415 ft | 217 kts | 319° |
| 2026-05-08 04:42 | 32.57226 | -111.39724 | 3186 ft | 215 kts | 341° |
| 2026-05-08 04:42 | 32.58691 | -111.39611 | 3165 ft | 217 kts | 27° |
| 2026-05-08 04:43 | 32.59694 | -111.38261 | 3387 ft | 230 kts | 68° |
| 2026-05-08 04:43 | 32.59741 | -111.36397 | 3496 ft | 237 kts | 109° |
| 2026-05-08 04:43 | 32.58748 | -111.34897 | 3660 ft | 236 kts | 150° |
| 2026-05-08 04:43 | 32.57151 | -111.34514 | 3895 ft | 236 kts | 192° |
| 2026-05-08 04:44 | 32.55723 | -111.35341 | 3994 ft | 231 kts | 228° |
| 2026-05-08 04:44 | 32.55033 | -111.36986 | 4019 ft | 225 kts | 261° |
| 2026-05-08 04:44 | 32.54344 | -111.38628 | 3865 ft | 224 kts | 222° |
| 2026-05-08 04:44 | 32.52894 | -111.39240 | 3858 ft | 229 kts | 169° |
| 2026-05-08 04:45 | 32.51727 | -111.38231 | 3756 ft | 212 kts | 104° |
| 2026-05-08 04:45 | 32.51566 | -111.36431 | 3076 ft | 229 kts | 88° |
| 2026-05-08 04:45 | 32.51575 | -111.34535 | 2753 ft | 229 kts | 89° |
| 2026-05-08 04:45 | 32.51168 | -111.32760 | 2154 ft | 230 kts | 130° |
| 2026-05-08 04:46 | 32.50086 | -111.31454 | 2086 ft | 213 kts | 137° |
| 2026-05-08 04:46 | 32.49145 | -111.30303 | 2701 ft | 194 kts | 131° |
| 2026-05-08 04:46 | 32.48356 | -111.28680 | 3115 ft | 258 kts | 111° |
| 2026-05-08 04:46 | 32.47592 | -111.26555 | 3878 ft | 298 kts | 123° |
| 2026-05-08 04:47 | 32.45980 | -111.25312 | 4940 ft | 260 kts | 175° |
| 2026-05-08 04:47 | 32.44553 | -111.26018 | 5335 ft | 212 kts | 245° |
| 2026-05-08 04:47 | 32.44525 | -111.27521 | 5393 ft | 178 kts | 305° |
| 2026-05-08 04:47 | 32.45532 | -111.28327 | 4838 ft | 184 kts | 341° |
| 2026-05-08 04:48 | 32.46848 | -111.28831 | 3888 ft | 213 kts | 341° |
| 2026-05-08 04:48 | 32.48271 | -111.29533 | 2998 ft | 233 kts | 326° |
| 2026-05-08 04:48 | 32.49475 | -111.30790 | 2392 ft | 222 kts | 318° |
| 2026-05-08 04:48 | 32.50509 | -111.31955 | 1983 ft | 188 kts | 313° |
| 2026-05-08 04:49 | 32.51282 | -111.32884 | 1891 ft | 133 kts | 312° |
| 2026-05-08 04:49 | 32.51624 | -111.33304 | 1878 ft | 4 kts | 320° |
| 2026-05-08 04:49 | 32.51632 | -111.33312 | 1880 ft | 0 kts | 321° |
| 2026-05-08 04:50 | 32.51634 | -111.33312 | 1881 ft | 0 kts | 331° |
| 2026-05-08 04:50 | 32.51637 | -111.33308 | 1880 ft | 1 kts | 18° |
| 2026-05-08 04:51 | 32.51633 | -111.33291 | 1881 ft | 7 kts | 116° |
| 2026-05-08 04:51 | 32.51579 | -111.33230 | 1885 ft | 14 kts | 137° |
| 2026-05-08 04:51 | 32.51499 | -111.33139 | 1876 ft | 18 kts | 135° |
| 2026-05-08 04:51 | 32.51402 | -111.33026 | 1881 ft | 45 kts | 135° |
| 2026-05-08 04:52 | 32.51198 | -111.32783 | 1891 ft | 34 kts | 134° |
| 2026-05-08 04:52 | 32.51018 | -111.32559 | 1891 ft | 39 kts | 119° |
| 2026-05-08 04:52 | 32.50893 | -111.32278 | 1889 ft | 39 kts | 118° |
| 2026-05-08 04:52 | 32.50726 | -111.32083 | 1890 ft | 32 kts | 156° |
| 2026-05-08 04:53 | 32.50710 | -111.31935 | 1896 ft | 8 kts | 33° |
| 2026-05-08 04:53 | 32.50716 | -111.31929 | 1899 ft | 1 kts | 46° |
| 2026-05-08 04:53 | 32.50716 | -111.31928 | 1899 ft | 0 kts | 46° |
| 2026-05-08 04:57 | 32.50718 | -111.31928 | 1899 ft | 1 kts | 30° |
| 2026-05-08 04:57 | 32.50981 | -111.32143 | 1896 ft | 108 kts | 317° |
| 2026-05-08 04:57 | 32.51654 | -111.33161 | 2044 ft | 188 kts | 301° |
| 2026-05-08 04:58 | 32.51859 | -111.34625 | 3396 ft | 193 kts | 255° |
| 2026-05-08 04:58 | 32.50814 | -111.35631 | 4300 ft | 239 kts | 179° |
| 2026-05-08 04:58 | 32.49463 | -111.34296 | 4082 ft | 316 kts | 98° |
| 2026-05-08 04:58 | 32.50640 | -111.32109 | 2691 ft | 388 kts | 7° |
| 2026-05-08 04:59 | 32.53072 | -111.33368 | 3683 ft | 383 kts | 317° |
| 2026-05-08 04:59 | 32.54373 | -111.35983 | 5093 ft | 372 kts | 286° |
| 2026-05-08 04:59 | 32.54200 | -111.38807 | 5744 ft | 326 kts | 238° |
| 2026-05-08 04:59 | 32.52593 | -111.40198 | 6701 ft | 271 kts | 192° |
| 2026-05-08 05:00 | 32.50920 | -111.39609 | 5824 ft | 267 kts | 124° |
| 2026-05-08 05:00 | 32.50880 | -111.37201 | 3512 ft | 338 kts | 81° |
| 2026-05-08 05:00 | 32.50899 | -111.34387 | 2570 ft | 345 kts | 97° |
| 2026-05-08 05:00 | 32.50736 | -111.31589 | 1980 ft | 329 kts | 80° |
| 2026-05-08 05:01 | 32.51034 | -111.29305 | 3563 ft | 242 kts | 94° |
| 2026-05-08 05:01 | 32.50364 | -111.27818 | 4274 ft | 193 kts | 158° |
| 2026-05-08 05:01 | 32.49025 | -111.28022 | 3816 ft | 241 kts | 226° |
| 2026-05-08 05:01 | 32.48368 | -111.30088 | 3634 ft | 302 kts | 278° |
| 2026-05-08 05:02 | 32.49539 | -111.31848 | 3356 ft | 281 kts | 337° |
| 2026-05-08 05:02 | 32.51219 | -111.31776 | 1884 ft | 72 kts | 52° |
| 2026-05-08 05:02 | 32.51286 | -111.31800 | 1877 ft | 9 kts | 208° |
| 2026-05-08 05:02 | 32.51279 | -111.31784 | 1886 ft | 1 kts | 232° |
| 2026-05-08 05:03 | 32.51274 | -111.31780 | 1883 ft | 0 kts | 237° |
| 2026-05-08 05:03 | 32.51273 | -111.31780 | 1883 ft | 0 kts | 236° |
| 2026-05-08 05:03 | 32.51276 | -111.31783 | 1886 ft | 1 kts | 235° |
| 2026-05-08 05:03 | 32.51284 | -111.31789 | 1886 ft | 2 kts | 236° |
| 2026-05-08 05:04 | 32.51288 | -111.31792 | 1896 ft | 0 kts | 237° |
| 2026-05-08 05:04 | 32.51287 | -111.31792 | 1896 ft | 0 kts | 236° |